Time;durP1;ratioP1;P1;durP2;ratioP2;P2;SDS_P1;SDS_P2;PMS_P1;PMS_P2;Temp;Humidity;BMP_temperature;BMP_pressure;BME280_temperature;BME280_humidity;BME280_pressure;Samples;Min_cycle;Max_cycle;Signal;HPM_P1;HPM_P2
2023/05/25 00:00:19;;;;;;;9.20;3.42;;;9.80;99.90;;;;;;5015971;28;20107;-75
2023/05/25 00:02:45;;;;;;;7.85;3.45;;;9.80;99.90;;;;;;5015800;28;20041;-75
2023/05/25 00:05:12;;;;;;;9.55;3.50;;;9.80;99.90;;;;;;5032210;28;20080;-74
2023/05/25 00:07:38;;;;;;;8.50;4.00;;;9.80;99.90;;;;;;5015576;28;20041;-74
2023/05/25 00:10:06;;;;;;;12.73;4.30;;;9.70;99.90;;;;;;5032401;28;20041;-74
2023/05/25 00:12:32;;;;;;;10.18;3.97;;;9.70;99.90;;;;;;5032123;28;20038;-75
2023/05/25 00:14:58;;;;;;;8.95;3.58;;;9.60;99.90;;;;;;5015436;28;20132;-75
2023/05/25 00:17:24;;;;;;;8.23;3.42;;;9.50;99.90;;;;;;5015640;28;20053;-74
2023/05/25 00:19:50;;;;;;;8.15;3.40;;;9.50;99.90;;;;;;4999292;28;20048;-74
2023/05/25 00:22:16;;;;;;;8.05;3.30;;;9.50;99.90;;;;;;5031863;28;20114;-74
2023/05/25 00:24:42;;;;;;;8.80;3.50;;;9.50;99.90;;;;;;5032227;28;20056;-74
2023/05/25 00:27:07;;;;;;;8.68;3.65;;;9.50;99.90;;;;;;5033408;28;20486;-74
2023/05/25 00:29:34;;;;;;;10.95;3.58;;;9.50;99.90;;;;;;5031932;28;20053;-74
2023/05/25 00:32:01;;;;;;;9.00;3.50;;;9.50;99.90;;;;;;5032042;28;20053;-74
2023/05/25 00:34:26;;;;;;;12.10;4.25;;;9.50;99.90;;;;;;5032064;28;20040;-74
2023/05/25 00:36:53;;;;;;;9.00;3.72;;;9.40;99.90;;;;;;5031738;28;20042;-74
2023/05/25 00:39:20;;;;;;;9.82;3.90;;;9.40;99.90;;;;;;5015355;28;20128;-74
2023/05/25 00:41:47;;;;;;;9.45;3.88;;;9.40;99.90;;;;;;5031745;28;20049;-74
2023/05/25 00:44:13;;;;;;;11.52;3.88;;;9.40;99.90;;;;;;5015319;28;20077;-74
2023/05/25 00:46:46;;;;;;;10.88;4.15;;;9.30;99.90;;;;;;5033182;28;20103;-74
2023/05/25 00:49:13;;;;;;;9.90;4.13;;;9.30;99.90;;;;;;5031951;28;20063;-74
2023/05/25 00:51:40;;;;;;;11.93;4.57;;;9.30;99.90;;;;;;5032889;28;20081;-74
2023/05/25 00:54:06;;;;;;;9.13;3.70;;;9.20;99.90;;;;;;5031735;28;20102;-74
2023/05/25 00:56:37;;;;;;;11.95;4.03;;;9.20;99.90;;;;;;5015348;28;20041;-74
2023/05/25 00:59:06;;;;;;;9.20;3.70;;;9.20;99.90;;;;;;5032204;28;20124;-74
2023/05/25 01:01:39;;;;;;;10.68;4.18;;;9.20;99.90;;;;;;5035974;28;20044;-75
2023/05/25 01:04:09;;;;;;;10.55;3.83;;;9.20;99.90;;;;;;5035607;28;20048;-74
2023/05/25 01:06:38;;;;;;;14.50;4.88;;;9.20;99.90;;;;;;5036658;28;20045;-74
2023/05/25 01:09:04;;;;;;;10.25;3.55;;;9.20;99.90;;;;;;5035444;28;20045;-75
2023/05/25 01:11:41;;;;;;;10.77;3.95;;;9.30;99.90;;;;;;5035454;28;20080;-74
2023/05/25 01:14:07;;;;;;;10.13;4.07;;;9.20;99.90;;;;;;5035271;28;20099;-74
2023/05/25 01:16:36;;;;;;;11.15;4.10;;;9.20;99.90;;;;;;5019098;28;20046;-75
2023/05/25 01:19:02;;;;;;;16.75;5.60;;;9.20;99.90;;;;;;5035220;28;20046;-74
2023/05/25 01:21:41;;;;;;;12.95;4.72;;;9.10;99.90;;;;;;5035486;28;20034;-74
2023/05/25 01:24:35;;;;;;;10.25;3.83;;;9.10;99.90;;;;;;5035202;28;20121;-75
2023/05/25 01:27:12;;;;;;;12.30;4.70;;;9.00;99.90;;;;;;5035294;28;20108;-75
2023/05/25 01:29:42;;;;;;;9.57;4.13;;;9.00;99.90;;;;;;5035072;28;20041;-75
2023/05/25 01:32:08;;;;;;;11.13;4.30;;;9.00;99.90;;;;;;5035049;28;20044;-75
2023/05/25 01:34:35;;;;;;;12.48;4.00;;;9.00;99.90;;;;;;5036546;28;20503;-74
2023/05/25 01:37:01;;;;;;;11.90;4.70;;;9.00;99.90;;;;;;5034936;28;20045;-75
2023/05/25 01:39:27;;;;;;;9.50;3.92;;;9.00;99.90;;;;;;5018496;28;20409;-74
2023/05/25 01:41:52;;;;;;;12.13;4.10;;;9.00;99.90;;;;;;5035233;28;20401;-75
2023/05/25 01:44:19;;;;;;;12.63;4.32;;;8.90;99.90;;;;;;5035097;28;20044;-75
2023/05/25 01:46:52;;;;;;;10.40;4.10;;;8.90;99.90;;;;;;5018227;28;20051;-75
2023/05/25 01:49:27;;;;;;;11.88;4.75;;;8.90;99.90;;;;;;5035092;28;20124;-75
2023/05/25 01:52:11;;;;;;;14.90;5.50;;;8.90;99.90;;;;;;5034751;28;20041;-75
2023/05/25 01:54:50;;;;;;;15.77;6.45;;;8.80;99.90;;;;;;5018158;28;20041;-75
2023/05/25 01:57:19;;;;;;;17.02;6.90;;;8.80;99.90;;;;;;5034958;28;20125;-75
2023/05/25 01:59:46;;;;;;;14.77;5.63;;;8.70;99.90;;;;;;5034640;28;20128;-75
2023/05/25 02:02:17;;;;;;;11.73;5.13;;;8.70;99.90;;;;;;5034779;28;20045;-75
2023/05/25 02:04:43;;;;;;;11.23;4.55;;;8.60;99.90;;;;;;5034511;28;20053;-74
2023/05/25 02:07:09;;;;;;;14.02;6.60;;;8.50;99.90;;;;;;5034281;28;20048;-75
2023/05/25 02:09:35;;;;;;;13.55;6.10;;;8.50;99.90;;;;;;5035672;28;20040;-75
2023/05/25 02:12:01;;;;;;;13.63;5.18;;;8.50;99.90;;;;;;5033617;28;20049;-74
2023/05/25 02:14:27;;;;;;;15.43;6.28;;;8.50;99.90;;;;;;5017661;28;20054;-74
2023/05/25 02:16:52;;;;;;;11.63;5.20;;;8.50;99.90;;;;;;5034530;28;20033;-74
2023/05/25 02:19:18;;;;;;;9.20;4.38;;;8.40;99.90;;;;;;5034140;28;20049;-75
2023/05/25 02:21:45;;;;;;;10.73;4.93;;;8.50;99.90;;;;;;5034428;28;20056;-74
2023/05/25 02:24:11;;;;;;;14.23;6.20;;;8.40;99.90;;;;;;5017606;28;20045;-74
2023/05/25 02:26:37;;;;;;;14.50;6.72;;;8.40;99.90;;;;;;5017590;28;20499;-74
2023/05/25 02:29:04;;;;;;;18.67;6.78;;;8.40;99.90;;;;;;5033977;28;20120;-75
2023/05/25 02:31:30;;;;;;;13.65;6.20;;;8.40;99.90;;;;;;5034212;28;20459;-74
2023/05/25 02:33:56;;;;;;;15.98;6.53;;;8.30;99.90;;;;;;5017494;28;20129;-74
2023/05/25 02:36:23;;;;;;;17.58;7.40;;;8.30;99.90;;;;;;5017280;28;20077;-74
2023/05/25 02:38:50;;;;;;;14.18;6.28;;;8.20;99.90;;;;;;5033818;28;20052;-74
2023/05/25 02:41:19;;;;;;;15.18;5.72;;;8.20;99.90;;;;;;5033781;28;20042;-75
2023/05/25 02:43:45;;;;;;;12.38;5.13;;;8.20;99.90;;;;;;5034059;28;20048;-74
2023/05/25 02:46:11;;;;;;;11.18;4.90;;;8.20;99.90;;;;;;5033891;28;20413;-75
2023/05/25 02:48:36;;;;;;;13.25;5.82;;;8.20;99.90;;;;;;5017111;28;20049;-74
2023/05/25 02:51:02;;;;;;;12.05;5.15;;;8.20;99.90;;;;;;5033611;28;20049;-74
2023/05/25 02:53:28;;;;;;;14.27;5.63;;;8.20;99.90;;;;;;5033615;28;20049;-74
2023/05/25 02:55:55;;;;;;;13.52;5.43;;;8.20;99.90;;;;;;5033505;28;20077;-74
2023/05/25 02:58:21;;;;;;;10.82;5.30;;;8.20;99.90;;;;;;5033388;28;20045;-75
2023/05/25 03:00:48;;;;;;;12.90;5.28;;;8.10;99.90;;;;;;5033733;28;20041;-74
2023/05/25 03:03:14;;;;;;;16.27;5.75;;;8.10;99.90;;;;;;5016886;28;20207;-74
2023/05/25 03:05:39;;;;;;;12.85;5.50;;;8.10;99.90;;;;;;5033280;28;20116;-74
2023/05/25 03:08:05;;;;;;;11.70;4.78;;;8.10;99.90;;;;;;5016660;28;20038;-74
2023/05/25 03:10:31;;;;;;;11.70;4.88;;;8.10;99.90;;;;;;5033252;28;20048;-74
2023/05/25 03:12:56;;;;;;;12.07;4.95;;;8.10;99.90;;;;;;5033232;28;20120;-74
2023/05/25 03:15:22;;;;;;;11.43;4.75;;;8.10;99.90;;;;;;5034228;28;20049;-74
2023/05/25 03:17:49;;;;;;;12.85;4.78;;;8.10;99.90;;;;;;5033421;28;20049;-74
2023/05/25 03:20:15;;;;;;;11.38;4.38;;;8.20;99.90;;;;;;5016562;28;20052;-74
2023/05/25 03:22:42;;;;;;;14.00;4.90;;;8.20;99.90;;;;;;5016707;28;20052;-74
2023/05/25 03:25:11;;;;;;;10.30;4.60;;;8.20;99.90;;;;;;5033198;28;20548;-74
2023/05/25 03:27:37;;;;;;;12.48;4.97;;;8.20;99.90;;;;;;5032953;28;20103;-74
2023/05/25 03:30:04;;;;;;;10.95;5.05;;;8.20;99.90;;;;;;5032969;28;20116;-74
2023/05/25 03:32:31;;;;;;;9.18;4.95;;;8.20;99.90;;;;;;5034329;28;20045;-74
2023/05/25 03:34:57;;;;;;;14.43;5.50;;;8.10;99.90;;;;;;5032782;28;20033;-74
2023/05/25 03:37:22;;;;;;;12.70;5.13;;;8.10;99.90;;;;;;5032714;28;20449;-74
2023/05/25 03:39:48;;;;;;;12.82;5.28;;;8.00;99.90;;;;;;5032699;28;20045;-74
2023/05/25 03:42:14;;;;;;;12.48;5.53;;;8.00;99.90;;;;;;5032618;28;20041;-74
2023/05/25 03:44:39;;;;;;;14.57;5.63;;;8.10;99.90;;;;;;5032664;28;20124;-74
2023/05/25 03:47:05;;;;;;;12.60;6.32;;;8.00;99.90;;;;;;5032678;28;20037;-74
2023/05/25 03:49:31;;;;;;;10.95;4.90;;;8.00;99.90;;;;;;5032514;28;20041;-74
2023/05/25 03:52:00;;;;;;;11.43;5.00;;;8.00;99.90;;;;;;5032566;28;20137;-74
2023/05/25 03:54:26;;;;;;;9.85;4.82;;;7.90;99.90;;;;;;5032432;28;20121;-74
2023/05/25 03:56:51;;;;;;;10.82;4.93;;;8.00;99.90;;;;;;5032599;28;20040;-73
2023/05/25 03:59:17;;;;;;;11.38;5.18;;;8.00;99.90;;;;;;5032274;28;20045;-73
2023/05/25 04:01:43;;;;;;;11.43;5.00;;;8.00;99.90;;;;;;5032548;28;20492;-74
2023/05/25 04:04:09;;;;;;;11.73;5.40;;;8.10;99.90;;;;;;5032266;28;20041;-73
2023/05/25 04:06:36;;;;;;;10.95;4.90;;;8.00;99.90;;;;;;5032403;28;20064;-74
2023/05/25 04:09:03;;;;;;;16.10;6.20;;;8.00;99.90;;;;;;5032625;28;20135;-74
2023/05/25 04:11:29;;;;;;;16.15;6.50;;;8.10;99.90;;;;;;5032410;28;20495;-73
2023/05/25 04:13:55;;;;;;;13.48;6.10;;;8.20;99.90;;;;;;5031959;28;20041;-73
2023/05/25 04:16:21;;;;;;;13.38;6.18;;;8.10;99.90;;;;;;5032399;28;20049;-73
2023/05/25 04:18:46;;;;;;;14.15;7.28;;;8.10;99.90;;;;;;5031971;28;20125;-74
2023/05/25 04:21:12;;;;;;;11.15;5.85;;;8.10;99.90;;;;;;5031934;28;20048;-74
2023/05/25 04:23:38;;;;;;;12.13;5.25;;;8.10;99.90;;;;;;5031884;28;20045;-74
2023/05/25 04:26:04;;;;;;;11.73;5.65;;;8.10;99.90;;;;;;5031873;28;20049;-74
2023/05/25 04:28:31;;;;;;;15.75;7.45;;;8.10;99.90;;;;;;5031892;28;20077;-73
2023/05/25 04:31:00;;;;;;;14.52;7.72;;;8.20;99.90;;;;;;5031889;28;20049;-73
2023/05/25 04:33:28;;;;;;;13.48;6.53;;;8.20;99.90;;;;;;5031814;28;20161;-73
2023/05/25 04:35:57;;;;;;;13.80;6.95;;;8.20;99.90;;;;;;5031454;28;20088;-73
2023/05/25 04:38:24;;;;;;;15.13;7.20;;;8.20;99.90;;;;;;5015698;28;20045;-73
2023/05/25 04:40:50;;;;;;;17.80;7.72;;;8.30;99.90;;;;;;5032065;28;20119;-73
2023/05/25 04:43:19;;;;;;;15.75;8.50;;;8.40;99.90;;;;;;5031677;28;20064;-74
2023/05/25 04:45:45;;;;;;;17.92;8.45;;;8.40;99.90;;;;;;5032062;28;20081;-73
2023/05/25 04:48:12;;;;;;;15.98;8.55;;;8.50;99.90;;;;;;5032783;28;20042;-74
2023/05/25 04:50:41;;;;;;;20.55;9.38;;;8.60;99.90;;;;;;5033196;28;20386;-73
2023/05/25 04:53:07;;;;;;;19.58;10.07;;;8.80;99.90;;;;;;5033212;28;20048;-73
2023/05/25 04:55:33;;;;;;;18.02;9.27;;;9.00;99.90;;;;;;5031893;28;20049;-73
2023/05/25 04:57:59;;;;;;;20.80;10.40;;;9.20;99.90;;;;;;5015088;28;20046;-73
2023/05/25 05:00:26;;;;;;;20.73;10.82;;;9.60;99.90;;;;;;5032841;28;20037;-73
2023/05/25 05:03:04;;;;;;;18.77;9.52;;;10.20;99.90;;;;;;5031607;28;20077;-73
2023/05/25 05:05:29;;;;;;;19.63;9.32;;;10.60;99.90;;;;;;5031499;28;20144;-74
2023/05/25 05:07:56;;;;;;;19.92;9.57;;;10.70;99.90;;;;;;5031394;28;20120;-73
2023/05/25 05:10:22;;;;;;;19.40;8.95;;;10.90;99.90;;;;;;4998970;28;20041;-73
2023/05/25 05:12:51;;;;;;;16.58;8.30;;;11.50;99.90;;;;;;5015134;28;20091;-74
2023/05/25 05:15:17;;;;;;;18.90;8.80;;;11.80;99.90;;;;;;5014885;28;20053;-73
2023/05/25 05:17:43;;;;;;;15.93;7.20;;;12.30;99.90;;;;;;5031765;28;20052;-73
2023/05/25 05:20:09;;;;;;;18.33;7.53;;;12.70;99.90;;;;;;5031397;28;20046;-73
2023/05/25 05:22:36;;;;;;;16.23;6.75;;;13.00;99.90;;;;;;5031718;28;20053;-73
2023/05/25 05:25:03;;;;;;;16.30;7.20;;;13.90;99.90;;;;;;5032836;28;20037;-74
2023/05/25 05:27:28;;;;;;;15.90;6.78;;;14.70;99.90;;;;;;5031247;28;20049;-73
2023/05/25 05:29:54;;;;;;;16.65;6.72;;;15.20;99.90;;;;;;5014984;28;20033;-73
2023/05/25 05:32:20;;;;;;;16.50;7.22;;;15.60;99.90;;;;;;5031300;28;20120;-74
2023/05/25 05:34:46;;;;;;;15.45;6.85;;;15.60;99.90;;;;;;5032570;28;20468;-73
2023/05/25 05:37:12;;;;;;;15.55;6.70;;;15.80;99.90;;;;;;5031448;28;20077;-73
2023/05/25 05:39:37;;;;;;;15.18;6.53;;;15.80;99.90;;;;;;5031260;28;20045;-73
2023/05/25 05:42:03;;;;;;;18.83;7.28;;;15.70;99.90;;;;;;5031500;28;20566;-73
2023/05/25 05:44:29;;;;;;;14.80;5.93;;;16.00;99.90;;;;;;5031209;28;20098;-73
2023/05/25 05:46:59;;;;;;;14.63;5.82;;;16.60;99.90;;;;;;5032756;28;20045;-73
2023/05/25 05:49:29;;;;;;;16.42;6.63;;;17.70;99.90;;;;;;5034820;28;20041;-73
2023/05/25 05:51:55;;;;;;;15.65;5.90;;;18.00;99.90;;;;;;5036256;28;20042;-73
2023/05/25 05:54:21;;;;;;;15.07;5.85;;;18.80;99.90;;;;;;5034650;28;20037;-74
2023/05/25 05:56:46;;;;;;;17.02;6.20;;;19.10;99.90;;;;;;5034686;28;20132;-74
2023/05/25 05:59:12;;;;;;;13.85;6.05;;;18.60;99.90;;;;;;5036158;28;20448;-74
2023/05/25 06:01:38;;;;;;;15.60;5.70;;;18.20;99.90;;;;;;5034460;28;20033;-74
2023/05/25 06:04:07;;;;;;;13.98;5.43;;;18.30;99.90;;;;;;5034479;28;20386;-74
2023/05/25 06:06:33;;;;;;;13.02;5.55;;;18.60;99.90;;;;;;5034705;28;20515;-74
2023/05/25 06:09:05;;;;;;;14.95;6.00;;;18.80;99.90;;;;;;5034274;28;20151;-74
2023/05/25 06:11:34;;;;;;;12.75;5.63;;;18.50;99.90;;;;;;5034462;28;20046;-74
2023/05/25 06:14:00;;;;;;;15.32;5.82;;;18.40;99.90;;;;;;5034201;28;20057;-74
2023/05/25 06:16:26;;;;;;;12.35;5.53;;;18.10;99.90;;;;;;5035856;28;20485;-74
2023/05/25 06:18:52;;;;;;;13.63;5.75;;;18.10;99.90;;;;;;5034167;28;20086;-74
2023/05/25 06:21:17;;;;;;;12.50;5.03;;;18.00;99.90;;;;;;5034773;28;20049;-74
2023/05/25 06:23:43;;;;;;;10.73;5.28;;;17.70;99.90;;;;;;5034376;28;20084;-74
2023/05/25 06:26:09;;;;;;;14.90;5.25;;;17.70;99.90;;;;;;5034326;28;20056;-74
2023/05/25 06:28:35;;;;;;;14.07;5.38;;;17.70;99.90;;;;;;5035254;28;20045;-74
2023/05/25 06:31:01;;;;;;;11.60;4.78;;;17.40;99.90;;;;;;5035340;28;20172;-74
2023/05/25 06:33:27;;;;;;;14.60;5.50;;;17.20;99.90;;;;;;5033999;28;20517;-74
2023/05/25 06:35:55;;;;;;;13.63;5.32;;;16.20;99.90;;;;;;5001444;28;20045;-74
2023/05/25 06:38:22;;;;;;;15.23;6.25;;;15.90;99.90;;;;;;5033969;28;20049;-74
2023/05/25 06:40:48;;;;;;;14.52;5.38;;;15.60;99.90;;;;;;5035398;28;20048;-74
2023/05/25 06:43:14;;;;;;;16.80;5.85;;;15.30;99.90;;;;;;5035288;28;20400;-74
2023/05/25 06:45:40;;;;;;;14.15;5.68;;;15.00;99.90;;;;;;5033919;28;20501;-74
2023/05/25 06:48:05;;;;;;;16.13;5.80;;;15.00;99.90;;;;;;5035184;28;20132;-74
2023/05/25 06:50:31;;;;;;;14.63;6.00;;;14.70;99.90;;;;;;5034396;28;20087;-65
2023/05/25 06:52:57;;;;;;;14.23;5.60;;;14.50;99.90;;;;;;5033540;28;20167;-65
2023/05/25 06:55:23;;;;;;;15.10;5.72;;;14.50;99.90;;;;;;5017163;28;20041;-65
2023/05/25 06:57:49;;;;;;;14.77;5.90;;;14.50;99.90;;;;;;5033291;28;20051;-65
2023/05/25 07:00:15;;;;;;;16.50;5.38;;;14.40;99.90;;;;;;5033586;28;20040;-65
2023/05/25 07:02:41;;;;;;;14.95;5.53;;;14.50;99.90;;;;;;5034661;28;20370;-65
2023/05/25 07:05:07;;;;;;;15.38;5.05;;;14.90;99.90;;;;;;5000681;28;20075;-65
2023/05/25 07:07:32;;;;;;;14.57;4.90;;;15.00;99.90;;;;;;5033406;28;20042;-65
2023/05/25 07:09:58;;;;;;;12.98;4.28;;;15.10;99.90;;;;;;5016778;28;20120;-66
2023/05/25 07:12:24;;;;;;;16.23;4.65;;;15.20;99.90;;;;;;5016811;28;20432;-65
2023/05/25 07:14:50;;;;;;;16.35;4.70;;;15.40;99.90;;;;;;5033082;28;20045;-65
2023/05/25 07:17:16;;;;;;;12.93;4.28;;;15.40;99.90;;;;;;5016665;28;20120;-65
2023/05/25 07:19:42;;;;;;;12.85;4.18;;;15.50;99.90;;;;;;5033008;28;20045;-65
2023/05/25 07:22:11;;;;;;;14.20;3.90;;;15.50;99.90;;;;;;5034362;28;20049;-65
2023/05/25 07:24:37;;;;;;;10.80;3.40;;;15.50;99.90;;;;;;5032972;28;20049;-65
2023/05/25 07:27:03;;;;;;;13.50;3.95;;;15.50;99.90;;;;;;5032878;28;20041;-65
2023/05/25 07:29:29;;;;;;;16.13;4.13;;;15.60;99.90;;;;;;5016978;28;20104;-65
2023/05/25 07:31:55;;;;;;;14.18;4.30;;;15.50;99.90;;;;;;5016356;28;20398;-65
2023/05/25 07:34:21;;;;;;;14.70;4.28;;;15.30;99.90;;;;;;5033118;28;20077;-65
2023/05/25 07:36:47;;;;;;;13.10;4.05;;;15.50;99.90;;;;;;5016261;28;20095;-65
2023/05/25 07:39:12;;;;;;;11.10;3.80;;;15.60;99.90;;;;;;5032953;28;20091;-65
2023/05/25 07:41:38;;;;;;;12.07;3.33;;;15.80;99.90;;;;;;5032716;28;20073;-66
2023/05/25 07:44:04;;;;;;;14.02;4.10;;;16.20;99.90;;;;;;5032794;28;20041;-65
2023/05/25 07:46:30;;;;;;;13.38;3.92;;;16.40;99.90;;;;;;5032788;28;20041;-65
2023/05/25 07:48:58;;;;;;;12.52;3.85;;;16.20;99.90;;;;;;5016035;28;20132;-66
2023/05/25 07:51:27;;;;;;;12.55;3.80;;;15.90;99.90;;;;;;5032706;28;20041;-67
2023/05/25 07:53:55;;;;;;;13.45;3.90;;;15.70;99.90;;;;;;5016038;28;20161;-67
2023/05/25 07:56:21;;;;;;;14.40;3.80;;;15.60;99.90;;;;;;5032776;28;20167;-66
2023/05/25 07:58:48;;;;;;;12.70;4.00;;;15.40;99.90;;;;;;5032389;28;20128;-66
2023/05/25 08:01:14;;;;;;;13.65;4.05;;;15.20;99.90;;;;;;5032343;28;20049;-69
2023/05/25 08:03:40;;;;;;;11.35;3.67;;;15.10;99.90;;;;;;5032407;28;20041;-66
2023/05/25 08:06:06;;;;;;;15.00;4.30;;;15.20;99.90;;;;;;5015884;28;20037;-67
2023/05/25 08:08:32;;;;;;;15.18;4.07;;;15.30;99.90;;;;;;5015381;28;20049;-67
2023/05/25 08:10:58;;;;;;;16.27;3.83;;;15.50;99.90;;;;;;5031968;28;20041;-69
2023/05/25 08:13:23;;;;;;;16.20;4.30;;;15.50;99.90;;;;;;4999650;28;20041;-67
2023/05/25 08:15:49;;;;;;;12.50;3.80;;;15.60;99.90;;;;;;5031954;28;20554;-66
2023/05/25 08:18:15;;;;;;;17.33;4.82;;;15.80;99.90;;;;;;5031987;28;20052;-67
2023/05/25 08:20:41;;;;;;;16.20;4.40;;;15.90;99.90;;;;;;5032057;28;20052;-67
2023/05/25 08:23:07;;;;;;;18.27;4.65;;;16.10;99.90;;;;;;5033489;28;20041;-70
2023/05/25 08:25:33;;;;;;;17.58;4.72;;;15.80;99.90;;;;;;5032237;28;20049;-66
2023/05/25 08:27:58;;;;;;;15.50;4.28;;;15.60;99.90;;;;;;5015412;28;20115;-66
2023/05/25 08:30:29;;;;;;;15.43;4.32;;;15.50;99.90;;;;;;5032282;28;20088;-66
2023/05/25 08:32:55;;;;;;;15.52;4.30;;;15.30;99.90;;;;;;5032172;28;20051;-66
2023/05/25 08:35:21;;;;;;;16.45;4.57;;;15.00;99.90;;;;;;5032003;28;20045;-65
2023/05/25 08:37:46;;;;;;;15.80;4.70;;;14.90;99.90;;;;;;5032133;28;20124;-65
2023/05/25 08:40:17;;;;;;;17.98;4.78;;;14.80;99.90;;;;;;5015459;28;20037;-65
2023/05/25 08:42:44;;;;;;;18.47;5.03;;;14.70;99.90;;;;;;5015694;28;20045;-65
2023/05/25 08:45:14;;;;;;;15.68;4.45;;;14.70;99.90;;;;;;5015209;28;20087;-65
2023/05/25 08:47:43;;;;;;;17.00;4.60;;;14.60;99.90;;;;;;5031659;28;20042;-65
2023/05/25 08:50:10;;;;;;;16.95;4.90;;;14.60;99.90;;;;;;5015235;28;20038;-65
2023/05/25 08:52:39;;;;;;;21.63;5.10;;;14.60;99.90;;;;;;5031871;28;20504;-65
2023/05/25 08:55:07;;;;;;;18.50;5.10;;;14.50;99.90;;;;;;5031653;28;20053;-65
2023/05/25 08:58:04;;;;;;;20.23;5.32;;;14.60;99.90;;;;;;5031660;28;20049;-65
2023/05/25 09:00:46;;;;;;;15.65;4.25;;;14.70;99.90;;;;;;5031856;28;20444;-65
2023/05/25 09:03:18;;;;;;;16.50;4.53;;;15.10;99.90;;;;;;5031558;28;20108;-65
2023/05/25 09:05:45;;;;;;;19.23;4.75;;;15.70;99.90;;;;;;5031818;28;20033;-65
2023/05/25 09:08:11;;;;;;;18.73;4.60;;;16.30;99.90;;;;;;5031257;28;20065;-65
2023/05/25 09:10:37;;;;;;;21.65;5.00;;;16.40;99.90;;;;;;5031491;28;20049;-65
2023/05/25 09:13:04;;;;;;;20.23;5.50;;;16.10;99.90;;;;;;5031782;28;20073;-66
2023/05/25 09:15:31;;;;;;;23.10;5.38;;;15.80;99.90;;;;;;5031300;28;20053;-66
2023/05/25 09:17:57;;;;;;;20.83;5.35;;;15.70;99.90;;;;;;5015090;28;20042;-68
2023/05/25 09:20:23;;;;;;;20.85;4.95;;;15.70;99.90;;;;;;5015912;28;20044;-66
2023/05/25 09:22:49;;;;;;;18.35;4.95;;;16.20;99.90;;;;;;5035557;28;20055;-66
2023/05/25 09:25:21;;;;;;;17.83;4.88;;;16.60;99.90;;;;;;5036755;28;20503;-67
2023/05/25 09:27:48;;;;;;;17.70;5.03;;;16.60;99.00;;;;;;5018626;28;20052;-67
2023/05/25 09:30:14;;;;;;;17.92;4.75;;;16.40;99.40;;;;;;5036436;28;20041;-65
2023/05/25 09:32:40;;;;;;;22.38;5.10;;;16.40;99.00;;;;;;5035452;28;20374;-69
2023/05/25 09:35:14;;;;;;;20.95;5.10;;;16.40;99.90;;;;;;5018822;28;20047;-65
2023/05/25 09:37:41;;;;;;;24.13;5.60;;;16.90;99.10;;;;;;5035137;28;20527;-66
2023/05/25 09:40:08;;;;;;;21.67;5.38;;;16.90;99.30;;;;;;5018753;28;20053;-66
2023/05/25 09:42:34;;;;;;;18.58;5.13;;;16.70;99.20;;;;;;5034910;28;20045;-66
2023/05/25 09:45:04;;;;;;;22.30;4.88;;;16.70;99.20;;;;;;5035087;28;20056;-67
2023/05/25 09:47:31;;;;;;;23.95;5.47;;;16.60;99.20;;;;;;5035075;28;20041;-66
2023/05/25 09:49:57;;;;;;;22.73;6.20;;;16.60;99.00;;;;;;5034893;28;20068;-66
2023/05/25 09:52:23;;;;;;;20.58;5.32;;;16.60;99.90;;;;;;5034965;28;20436;-66
2023/05/25 09:54:50;;;;;;;20.60;5.43;;;16.40;99.90;;;;;;5034748;28;20046;-66
2023/05/25 09:57:18;;;;;;;22.70;5.93;;;16.30;99.90;;;;;;5018467;28;20042;-66
2023/05/25 09:59:44;;;;;;;23.25;5.40;;;16.20;99.90;;;;;;5034807;28;20041;-66
2023/05/25 10:02:11;;;;;;;21.50;5.03;;;16.20;99.50;;;;;;5034638;28;20045;-66
2023/05/25 10:04:38;;;;;;;22.88;5.90;;;16.10;99.80;;;;;;5034630;28;20045;-67
2023/05/25 10:07:04;;;;;;;25.40;5.78;;;16.10;99.90;;;;;;5034466;28;20056;-66
2023/05/25 10:09:33;;;;;;;21.65;6.10;;;16.10;99.90;;;;;;5034466;28;20073;-66
2023/05/25 10:12:00;;;;;;;20.50;5.43;;;16.00;99.90;;;;;;5034576;28;20045;-66
2023/05/25 10:14:28;;;;;;;18.77;5.22;;;16.60;99.90;;;;;;5017776;28;20053;-67
2023/05/25 10:16:56;;;;;;;20.83;5.38;;;17.00;97.60;;;;;;5034274;28;20045;-66
2023/05/25 10:19:51;;;;;;;16.60;5.18;;;17.00;96.00;;;;;;5034305;28;20152;-66
2023/05/25 10:22:30;;;;;;;22.02;5.50;;;16.80;96.80;;;;;;5027233;28;20057;-66
2023/05/25 10:25:06;;;;;;;20.45;5.38;;;17.00;95.60;;;;;;5034145;28;20041;-66
2023/05/25 10:27:50;;;;;;;18.83;5.50;;;16.90;95.10;;;;;;5035371;28;20045;-66
2023/05/25 10:30:16;;;;;;;20.98;5.35;;;17.00;96.30;;;;;;5034063;28;20107;-66
2023/05/25 10:32:44;;;;;;;22.08;5.30;;;17.20;96.30;;;;;;5016740;28;20115;-66
2023/05/25 10:35:10;;;;;;;21.42;5.22;;;17.10;95.60;;;;;;5034166;28;20103;-65
2023/05/25 10:37:37;;;;;;;19.48;5.05;;;16.90;94.20;;;;;;5034135;28;20064;-66
2023/05/25 10:40:07;;;;;;;20.27;5.30;;;17.00;94.20;;;;;;5017561;28;20141;-65
2023/05/25 10:42:35;;;;;;;19.63;5.38;;;17.20;94.70;;;;;;5035099;28;20037;-65
2023/05/25 10:45:06;;;;;;;17.30;5.20;;;17.30;93.70;;;;;;5035007;28;20049;-66
2023/05/25 10:47:36;;;;;;;20.10;5.10;;;17.40;93.00;;;;;;5033652;28;20037;-65
2023/05/25 10:50:03;;;;;;;20.20;5.15;;;17.60;93.90;;;;;;5033721;28;20049;-65
2023/05/25 10:52:30;;;;;;;17.67;4.65;;;17.90;91.30;;;;;;5033867;28;20081;-66
2023/05/25 10:55:00;;;;;;;15.82;4.72;;;18.10;90.80;;;;;;5017457;28;20056;-65
2023/05/25 10:57:26;;;;;;;17.35;4.82;;;17.80;87.40;;;;;;5033634;28;20045;-65
2023/05/25 11:00:12;;;;;;;19.05;5.10;;;17.60;90.90;;;;;;5033783;28;20045;-65
2023/05/25 11:02:52;;;;;;;17.17;4.55;;;17.90;91.20;;;;;;5034950;28;20041;-65
2023/05/25 11:05:30;;;;;;;16.20;4.82;;;18.20;90.80;;;;;;5016803;28;20131;-66
2023/05/25 11:07:56;;;;;;;18.20;4.85;;;18.30;90.60;;;;;;5034661;28;20045;-66
2023/05/25 11:10:40;;;;;;;16.10;4.38;;;18.40;90.00;;;;;;5034516;28;20037;-65
2023/05/25 11:13:27;;;;;;;14.18;4.60;;;18.40;86.80;;;;;;5016686;28;20038;-65
2023/05/25 11:16:18;;;;;;;18.80;5.47;;;18.40;87.90;;;;;;5034263;28;20053;-65
2023/05/25 11:18:53;;;;;;;15.98;4.50;;;18.10;88.10;;;;;;5033165;28;20045;-65
2023/05/25 11:21:41;;;;;;;20.10;5.00;;;18.00;88.30;;;;;;5034613;28;20029;-66
2023/05/25 11:24:12;;;;;;;18.58;4.50;;;18.30;90.30;;;;;;5016758;28;20120;-66
2023/05/25 11:26:53;;;;;;;18.92;4.80;;;18.60;90.30;;;;;;5033071;28;20136;-66
2023/05/25 11:29:20;;;;;;;17.60;5.10;;;18.40;85.50;;;;;;5034102;28;20053;-66
2023/05/25 11:31:55;;;;;;;19.55;5.03;;;17.70;87.30;;;;;;5032890;28;20033;-66
2023/05/25 11:34:24;;;;;;;17.98;4.95;;;17.50;90.20;;;;;;5032876;28;20052;-65
2023/05/25 11:37:01;;;;;;;19.70;5.18;;;17.60;91.70;;;;;;5032685;28;20033;-65
2023/05/25 11:39:28;;;;;;;20.02;4.80;;;17.40;90.90;;;;;;4991290;28;20046;-65
2023/05/25 11:41:55;;;;;;;18.02;5.32;;;17.50;92.00;;;;;;5034254;28;20033;-75
2023/05/25 11:44:29;;;;;;;18.20;5.00;;;17.40;90.60;;;;;;5031961;28;20405;-75
2023/05/25 11:46:56;;;;;;;16.95;5.03;;;17.70;91.00;;;;;;5016100;28;20050;-76
2023/05/25 11:49:24;;;;;;;20.35;5.32;;;17.80;90.90;;;;;;5032633;28;20120;-76
2023/05/25 11:51:50;;;;;;;19.60;5.15;;;17.50;91.00;;;;;;5032693;28;20069;-76
2023/05/25 11:54:27;;;;;;;21.75;5.75;;;17.30;92.10;;;;;;5032803;28;20044;-75
2023/05/25 11:56:58;;;;;;;23.80;6.00;;;17.20;93.20;;;;;;5032488;28;20041;-76
2023/05/25 11:59:31;;;;;;;19.00;5.38;;;17.20;91.90;;;;;;5032372;28;20144;-76
2023/05/25 12:02:02;;;;;;;21.02;5.43;;;17.50;92.80;;;;;;5032374;28;20041;-76
2023/05/25 12:04:29;;;;;;;20.73;5.82;;;17.30;92.20;;;;;;5032621;28;20041;-75
2023/05/25 12:07:03;;;;;;;19.23;5.07;;;17.20;92.50;;;;;;5032140;28;20088;-76
2023/05/25 12:09:30;;;;;;;21.73;5.35;;;17.20;92.70;;;;;;5033451;28;20042;-76
2023/05/25 12:11:56;;;;;;;21.65;5.80;;;17.20;93.10;;;;;;4999578;28;20043;-76
2023/05/25 12:14:22;;;;;;;22.20;5.22;;;17.30;92.70;;;;;;5032212;28;20140;-76
2023/05/25 12:16:49;;;;;;;21.02;5.47;;;17.60;92.70;;;;;;5032005;28;20111;-76
2023/05/25 12:19:16;;;;;;;20.50;5.45;;;17.70;88.60;;;;;;5032310;28;20041;-76
2023/05/25 12:21:42;;;;;;;21.92;5.93;;;17.90;91.10;;;;;;4999495;28;20045;-76
2023/05/25 12:24:12;;;;;;;16.75;5.05;;;18.10;91.40;;;;;;5032276;28;20485;-76
2023/05/25 12:26:58;;;;;;;20.73;5.10;;;18.20;89.70;;;;;;5031900;28;20080;-76
2023/05/25 12:29:25;;;;;;;18.67;5.38;;;18.00;88.90;;;;;;5033479;28;20504;-76
2023/05/25 12:31:51;;;;;;;22.00;5.65;;;18.00;89.00;;;;;;5030659;28;20497;-76
2023/05/25 12:34:18;;;;;;;18.38;5.68;;;18.00;90.80;;;;;;5032289;28;20067;-76
2023/05/25 12:36:54;;;;;;;20.73;5.78;;;18.10;90.90;;;;;;5029924;28;20041;-76
2023/05/25 12:39:28;;;;;;;25.15;6.07;;;17.70;90.60;;;;;;5029625;28;20103;-76
2023/05/25 12:41:55;;;;;;;23.70;5.43;;;17.70;92.50;;;;;;5031839;28;20045;-76
2023/05/25 12:44:30;;;;;;;21.73;5.90;;;17.80;92.50;;;;;;5031802;28;20045;-76